VG09 weather

Starbase Airport
Cape Charles, Virginia, United States

Public forecast

Using degrees Fahrenheit for public forecast. Weather courtesy of forecast.io.

Closest aviation weather report (METAR) to Starbase Airport

Closest report is Langley Air Force Base, 20.0 nm (37.1 km) WSW. Retrieved 2019/11/17 03:56 UTC (27 minutes ago):

KLFI 170356Z 36018G28KT 8SM OVC013 07/05 A3018 RMK AO2A PK WND 35030/06 CIG 012 RWY08 SLP226 T00710054

Closest aviation forecast (TAF) to Starbase Airport

Closest forecast is Langley Air Force Base, 20.0 nm (37.1 km) WSW. Retrieved 2019-11-17 02:15 UTC (2 hours ago):

TAF KLFI 170200Z 1702/1808 04025G35KT 9999 BKN020 OVC025 510008 QNH3000INS BECMG 1708/1709 01020G30KT 9999 BKN015 OVC020 510008 QNH2989INS BECMG 1717/1718 01020G30KT 9999 OVC010 510008 QNH2988INS BECMG 1722/1723 01020G30KT 9999 OVC008 510008 QNH2986INS TEMPO 1801/1804 6000 -RA TX11/1713Z TN08/1702Z